sensor_id;sensor_type;location;lat;lon;timestamp;pressure;altitude;pressure_sealevel;temperature;humidity
63096;BME280;49184;55.596;37.770;2023-09-08T00:02:03;99964.53;;;13.69;63.21
63096;BME280;49184;55.596;37.770;2023-09-08T00:05:01;99974.31;;;13.92;63.18
63096;BME280;49184;55.596;37.770;2023-09-08T00:07:42;99949.03;;;13.73;61.21
63096;BME280;49184;55.596;37.770;2023-09-08T00:10:34;99973.16;;;13.93;61.55
63096;BME280;49184;55.596;37.770;2023-09-08T00:13:06;99953.44;;;13.82;60.88
63096;BME280;49184;55.596;37.770;2023-09-08T00:15:55;99943.88;;;13.71;61.48
63096;BME280;49184;55.596;37.770;2023-09-08T00:18:21;99926.19;;;13.63;61.73
63096;BME280;49184;55.596;37.770;2023-09-08T00:20:47;99935.00;;;13.74;61.31
63096;BME280;49184;55.596;37.770;2023-09-08T00:23:13;99919.72;;;13.59;61.95
63096;BME280;49184;55.596;37.770;2023-09-08T00:25:55;99875.41;;;13.35;62.39
63096;BME280;49184;55.596;37.770;2023-09-08T00:28:21;99887.53;;;13.43;62.25
63096;BME280;49184;55.596;37.770;2023-09-08T00:30:50;99907.94;;;13.59;62.22
63096;BME280;49184;55.596;37.770;2023-09-08T00:33:16;99907.78;;;13.55;60.94
63096;BME280;49184;55.596;37.770;2023-09-08T00:38:41;99950.97;;;13.72;61.00
63096;BME280;49184;55.596;37.770;2023-09-08T00:41:32;99910.81;;;13.54;62.13
63096;BME280;49184;55.596;37.770;2023-09-08T00:48:25;99953.47;;;13.91;61.07
63096;BME280;49184;55.596;37.770;2023-09-08T00:50:55;99914.75;;;13.70;61.78
63096;BME280;49184;55.596;37.770;2023-09-08T00:53:22;99919.59;;;13.65;61.48
63096;BME280;49184;55.596;37.770;2023-09-08T00:55:54;99875.56;;;13.38;61.98
63096;BME280;49184;55.596;37.770;2023-09-08T00:58:20;99880.91;;;13.44;61.48
63096;BME280;49184;55.596;37.770;2023-09-08T01:00:46;99921.72;;;13.68;61.30
63096;BME280;49184;55.596;37.770;2023-09-08T01:06:39;99906.63;;;13.48;61.99
63096;BME280;49184;55.596;37.770;2023-09-08T01:09:54;99871.00;;;13.25;61.50
63096;BME280;49184;55.596;37.770;2023-09-08T01:12:20;99888.78;;;13.36;61.38
63096;BME280;49184;55.596;37.770;2023-09-08T01:14:46;99886.38;;;13.35;62.61
63096;BME280;49184;55.596;37.770;2023-09-08T01:17:21;99913.91;;;13.52;61.52
63096;BME280;49184;55.596;37.770;2023-09-08T01:20:01;99892.50;;;13.40;62.60
63096;BME280;49184;55.596;37.770;2023-09-08T01:26:03;99918.88;;;13.42;63.31
63096;BME280;49184;55.596;37.770;2023-09-08T01:28:32;99920.31;;;13.39;63.71
63096;BME280;49184;55.596;37.770;2023-09-08T01:31:07;99892.03;;;13.07;63.92
63096;BME280;49184;55.596;37.770;2023-09-08T01:33:34;99888.47;;;13.07;64.35
63096;BME280;49184;55.596;37.770;2023-09-08T01:36:14;99882.97;;;13.07;63.97
63096;BME280;49184;55.596;37.770;2023-09-08T01:38:43;99881.66;;;13.04;64.24
63096;BME280;49184;55.596;37.770;2023-09-08T01:41:11;99899.84;;;13.23;64.38
63096;BME280;49184;55.596;37.770;2023-09-08T01:43:45;99904.84;;;13.21;64.24
63096;BME280;49184;55.596;37.770;2023-09-08T01:46:11;99875.38;;;13.04;63.79
63096;BME280;49184;55.596;37.770;2023-09-08T01:48:43;99833.59;;;12.76;63.99
63096;BME280;49184;55.596;37.770;2023-09-08T01:51:10;99875.56;;;13.07;64.17
63096;BME280;49184;55.596;37.770;2023-09-08T01:53:37;99900.06;;;13.26;63.99
63096;BME280;49184;55.596;37.770;2023-09-08T01:59:25;99892.00;;;13.30;64.00
63096;BME280;49184;55.596;37.770;2023-09-08T02:01:51;99881.97;;;13.25;63.29
63096;BME280;49184;55.596;37.770;2023-09-08T02:04:58;99910.75;;;13.36;64.75
63096;BME280;49184;55.596;37.770;2023-09-08T02:07:24;99877.38;;;13.12;65.11
63096;BME280;49184;55.596;37.770;2023-09-08T02:12:52;99891.38;;;13.10;66.36
63096;BME280;49184;55.596;37.770;2023-09-08T02:15:24;99884.28;;;13.09;67.07
63096;BME280;49184;55.596;37.770;2023-09-08T02:17:53;99883.50;;;13.17;66.65
63096;BME280;49184;55.596;37.770;2023-09-08T02:23:17;99836.53;;;12.79;66.98
63096;BME280;49184;55.596;37.770;2023-09-08T02:29:32;99873.34;;;12.87;68.29
63096;BME280;49184;55.596;37.770;2023-09-08T02:34:28;99848.84;;;12.59;69.03
63096;BME280;49184;55.596;37.770;2023-09-08T02:40:13;99846.00;;;12.73;69.52
63096;BME280;49184;55.596;37.770;2023-09-08T02:42:39;99871.41;;;12.87;68.45
63096;BME280;49184;55.596;37.770;2023-09-08T02:45:39;99846.69;;;12.79;68.92
63096;BME280;49184;55.596;37.770;2023-09-08T02:48:07;99824.88;;;12.74;70.65
63096;BME280;49184;55.596;37.770;2023-09-08T02:51:05;99869.78;;;13.17;69.99
63096;BME280;49184;55.596;37.770;2023-09-08T02:53:34;99869.59;;;13.14;69.08
63096;BME280;49184;55.596;37.770;2023-09-08T02:56:02;99811.16;;;12.74;70.64
63096;BME280;49184;55.596;37.770;2023-09-08T02:58:32;99820.50;;;12.73;70.46
63096;BME280;49184;55.596;37.770;2023-09-08T03:01:14;99810.72;;;12.58;70.77
63096;BME280;49184;55.596;37.770;2023-09-08T03:03:41;99846.38;;;12.80;70.69
63096;BME280;49184;55.596;37.770;2023-09-08T03:06:12;99819.19;;;12.70;71.09
63096;BME280;49184;55.596;37.770;2023-09-08T03:08:58;99837.50;;;12.83;70.29
63096;BME280;49184;55.596;37.770;2023-09-08T03:11:24;99832.66;;;12.80;70.70
63096;BME280;49184;55.596;37.770;2023-09-08T03:13:51;99775.97;;;12.44;71.01
63096;BME280;49184;55.596;37.770;2023-09-08T03:16:18;99824.91;;;12.82;70.39
63096;BME280;49184;55.596;37.770;2023-09-08T03:18:49;99807.59;;;12.73;70.37
63096;BME280;49184;55.596;37.770;2023-09-08T03:21:22;99861.19;;;13.02;69.78
63096;BME280;49184;55.596;37.770;2023-09-08T03:23:48;99802.44;;;12.72;70.24
63096;BME280;49184;55.596;37.770;2023-09-08T03:26:14;99810.97;;;12.70;69.51
63096;BME280;49184;55.596;37.770;2023-09-08T03:28:42;99779.13;;;12.60;69.09
63096;BME280;49184;55.596;37.770;2023-09-08T03:31:09;99823.78;;;12.83;69.00
63096;BME280;49184;55.596;37.770;2023-09-08T03:33:35;99824.94;;;12.91;70.53
63096;BME280;49184;55.596;37.770;2023-09-08T03:36:06;99847.75;;;13.00;70.30
63096;BME280;49184;55.596;37.770;2023-09-08T03:38:32;99778.69;;;12.67;68.84
63096;BME280;49184;55.596;37.770;2023-09-08T03:41:27;99839.03;;;13.29;68.90
63096;BME280;49184;55.596;37.770;2023-09-08T03:44:08;99846.13;;;13.30;68.80
63096;BME280;49184;55.596;37.770;2023-09-08T03:46:42;99759.19;;;12.68;68.10
63096;BME280;49184;55.596;37.770;2023-09-08T03:49:43;99795.25;;;12.93;68.75
63096;BME280;49184;55.596;37.770;2023-09-08T03:52:33;99764.84;;;12.81;69.03
63096;BME280;49184;55.596;37.770;2023-09-08T03:55:03;99807.38;;;13.01;67.63
63096;BME280;49184;55.596;37.770;2023-09-08T03:57:40;99810.34;;;13.13;68.73
63096;BME280;49184;55.596;37.770;2023-09-08T04:00:08;99805.38;;;13.24;68.00
63096;BME280;49184;55.596;37.770;2023-09-08T04:06:01;99778.84;;;13.10;67.55
63096;BME280;49184;55.596;37.770;2023-09-08T04:08:28;99759.59;;;12.93;66.93
63096;BME280;49184;55.596;37.770;2023-09-08T04:11:45;99828.41;;;13.45;67.52
63096;BME280;49184;55.596;37.770;2023-09-08T04:14:11;99821.31;;;13.53;67.46
63096;BME280;49184;55.596;37.770;2023-09-08T04:27:59;99750.13;;;13.16;66.19
63096;BME280;49184;55.596;37.770;2023-09-08T04:30:50;99736.13;;;13.27;65.77
63096;BME280;49184;55.596;37.770;2023-09-08T04:33:41;99771.38;;;13.51;65.19
63096;BME280;49184;55.596;37.770;2023-09-08T04:36:29;99812.00;;;13.89;63.81
63096;BME280;49184;55.596;37.770;2023-09-08T04:39:21;99741.47;;;13.40;64.45
63096;BME280;49184;55.596;37.770;2023-09-08T04:45:26;99737.28;;;13.34;62.99
63096;BME280;49184;55.596;37.770;2023-09-08T04:47:59;99779.97;;;13.58;63.62
63096;BME280;49184;55.596;37.770;2023-09-08T04:50:36;99809.25;;;13.89;63.74
63096;BME280;49184;55.596;37.770;2023-09-08T04:53:31;99804.56;;;13.98;63.15
63096;BME280;49184;55.596;37.770;2023-09-08T04:56:13;99753.94;;;13.73;62.83
63096;BME280;49184;55.596;37.770;2023-09-08T04:58:42;99788.22;;;14.01;62.08
63096;BME280;49184;55.596;37.770;2023-09-08T05:01:35;99796.28;;;14.06;62.69
63096;BME280;49184;55.596;37.770;2023-09-08T05:04:04;99762.53;;;13.71;62.25
63096;BME280;49184;55.596;37.770;2023-09-08T05:06:30;99770.59;;;13.76;61.65
63096;BME280;49184;55.596;37.770;2023-09-08T05:09:01;99733.06;;;13.37;62.22
63096;BME280;49184;55.596;37.770;2023-09-08T05:11:28;99786.09;;;13.90;62.96
63096;BME280;49184;55.596;37.770;2023-09-08T05:13:55;99747.16;;;13.79;62.20
63096;BME280;49184;55.596;37.770;2023-09-08T05:16:28;99745.38;;;13.92;61.54
63096;BME280;49184;55.596;37.770;2023-09-08T05:29:43;99752.97;;;13.95;62.50
63096;BME280;49184;55.596;37.770;2023-09-08T05:32:20;99761.50;;;14.19;61.46
63096;BME280;49184;55.596;37.770;2023-09-08T05:38:24;99720.31;;;13.76;60.95
63096;BME280;49184;55.596;37.770;2023-09-08T05:40:53;99758.28;;;14.17;61.53
63096;BME280;49184;55.596;37.770;2023-09-08T05:43:21;99753.56;;;14.35;59.54
63096;BME280;49184;55.596;37.770;2023-09-08T05:45:47;99710.16;;;13.85;60.22
63096;BME280;49184;55.596;37.770;2023-09-08T05:48:13;99738.28;;;13.82;60.91
63096;BME280;49184;55.596;37.770;2023-09-08T05:50:39;99731.97;;;13.81;61.20
63096;BME280;49184;55.596;37.770;2023-09-08T05:53:07;99714.81;;;13.67;60.97
63096;BME280;49184;55.596;37.770;2023-09-08T05:55:33;99748.59;;;13.94;61.37
63096;BME280;49184;55.596;37.770;2023-09-08T05:57:59;99727.59;;;13.89;60.38
63096;BME280;49184;55.596;37.770;2023-09-08T06:00:25;99721.94;;;13.94;60.42
63096;BME280;49184;55.596;37.770;2023-09-08T06:02:53;99704.81;;;13.89;59.30
63096;BME280;49184;55.596;37.770;2023-09-08T06:05:20;99735.81;;;14.15;59.92
63096;BME280;49184;55.596;37.770;2023-09-08T06:07:47;99708.31;;;14.06;59.98
63096;BME280;49184;55.596;37.770;2023-09-08T06:10:15;99710.72;;;14.25;59.24
63096;BME280;49184;55.596;37.770;2023-09-08T06:12:42;99728.44;;;14.45;60.18
63096;BME280;49184;55.596;37.770;2023-09-08T06:15:09;99680.19;;;14.09;57.56
63096;BME280;49184;55.596;37.770;2023-09-08T06:17:35;99716.81;;;14.40;58.02
63096;BME280;49184;55.596;37.770;2023-09-08T06:20:04;99706.97;;;14.30;58.49
63096;BME280;49184;55.596;37.770;2023-09-08T06:22:30;99681.16;;;14.05;58.53
63096;BME280;49184;55.596;37.770;2023-09-08T06:24:59;99715.84;;;14.36;58.25
63096;BME280;49184;55.596;37.770;2023-09-08T06:27:28;99722.81;;;14.50;58.57
63096;BME280;49184;55.596;37.770;2023-09-08T06:29:58;99731.06;;;14.50;57.61
63096;BME280;49184;55.596;37.770;2023-09-08T06:32:29;99705.09;;;14.60;57.06
63096;BME280;49184;55.596;37.770;2023-09-08T06:34:55;99680.53;;;14.46;57.07
63096;BME280;49184;55.596;37.770;2023-09-08T06:37:22;99684.72;;;14.61;57.00
63096;BME280;49184;55.596;37.770;2023-09-08T06:39:49;99661.09;;;14.60;57.41
63096;BME280;49184;55.596;37.770;2023-09-08T06:42:18;99678.31;;;14.78;56.87
63096;BME280;49184;55.596;37.770;2023-09-08T06:44:50;99688.78;;;14.93;55.15
63096;BME280;49184;55.596;37.770;2023-09-08T06:47:17;99668.81;;;14.96;55.99
63096;BME280;49184;55.596;37.770;2023-09-08T06:49:47;99705.75;;;14.95;53.81
63096;BME280;49184;55.596;37.770;2023-09-08T06:52:17;99680.00;;;15.00;55.18
63096;BME280;49184;55.596;37.770;2023-09-08T06:54:43;99659.03;;;15.08;54.96
63096;BME280;49184;55.596;37.770;2023-09-08T06:57:12;99667.84;;;15.22;55.29
63096;BME280;49184;55.596;37.770;2023-09-08T06:59:39;99661.94;;;15.11;54.81
63096;BME280;49184;55.596;37.770;2023-09-08T07:02:07;99647.50;;;15.14;56.33
63096;BME280;49184;55.596;37.770;2023-09-08T07:04:33;99639.69;;;15.16;55.42
63096;BME280;49184;55.596;37.770;2023-09-08T07:06:59;99640.16;;;15.18;53.98
63096;BME280;49184;55.596;37.770;2023-09-08T07:09:34;99652.47;;;15.21;54.12
63096;BME280;49184;55.596;37.770;2023-09-08T07:12:03;99662.72;;;15.33;54.99
63096;BME280;49184;55.596;37.770;2023-09-08T07:14:33;99622.97;;;15.21;53.64
63096;BME280;49184;55.596;37.770;2023-09-08T07:16:59;99628.88;;;15.11;53.73
63096;BME280;49184;55.596;37.770;2023-09-08T07:19:26;99641.59;;;15.03;53.25
63096;BME280;49184;55.596;37.770;2023-09-08T07:21:54;99601.34;;;14.90;53.63
63096;BME280;49184;55.596;37.770;2023-09-08T07:24:20;99649.19;;;15.27;53.96
63096;BME280;49184;55.596;37.770;2023-09-08T07:26:47;99633.44;;;15.28;53.34
63096;BME280;49184;55.596;37.770;2023-09-08T07:29:13;99624.56;;;15.22;52.65
63096;BME280;49184;55.596;37.770;2023-09-08T07:31:40;99634.19;;;15.37;52.13
63096;BME280;49184;55.596;37.770;2023-09-08T07:34:09;99635.13;;;15.41;53.11
63096;BME280;49184;55.596;37.770;2023-09-08T07:36:36;99621.34;;;15.41;53.46
63096;BME280;49184;55.596;37.770;2023-09-08T07:39:03;99614.84;;;15.25;53.03
63096;BME280;49184;55.596;37.770;2023-09-08T07:41:29;99637.38;;;15.60;51.88
63096;BME280;49184;55.596;37.770;2023-09-08T07:43:55;99629.53;;;15.71;51.24
63096;BME280;49184;55.596;37.770;2023-09-08T07:46:24;99622.28;;;15.66;51.62
63096;BME280;49184;55.596;37.770;2023-09-08T07:48:52;99584.47;;;15.34;51.32
63096;BME280;49184;55.596;37.770;2023-09-08T07:51:18;99561.28;;;15.35;51.32
63096;BME280;49184;55.596;37.770;2023-09-08T07:53:53;99596.25;;;15.55;50.97
63096;BME280;49184;55.596;37.770;2023-09-08T07:56:21;99604.78;;;15.95;51.19
63096;BME280;49184;55.596;37.770;2023-09-08T07:58:48;99567.69;;;15.93;49.92
63096;BME280;49184;55.596;37.770;2023-09-08T08:01:16;99581.13;;;16.19;49.35
63096;BME280;49184;55.596;37.770;2023-09-08T08:03:42;99612.41;;;16.23;49.28
63096;BME280;49184;55.596;37.770;2023-09-08T08:06:08;99597.00;;;16.10;50.18
63096;BME280;49184;55.596;37.770;2023-09-08T08:08:40;99565.38;;;15.95;50.44
63096;BME280;49184;55.596;37.770;2023-09-08T08:11:13;99600.69;;;16.14;49.78
63096;BME280;49184;55.596;37.770;2023-09-08T08:13:40;99554.22;;;15.91;50.11
63096;BME280;49184;55.596;37.770;2023-09-08T08:16:08;99580.53;;;16.01;49.91
63096;BME280;49184;55.596;37.770;2023-09-08T08:18:54;99509.31;;;15.45;49.72
63096;BME280;49184;55.596;37.770;2023-09-08T08:21:20;99565.75;;;16.30;54.36
63096;BME280;49184;55.596;37.770;2023-09-08T08:23:49;99548.56;;;16.61;53.28
63096;BME280;49184;55.596;37.770;2023-09-08T08:26:16;99563.25;;;17.58;49.16
63096;BME280;49184;55.596;37.770;2023-09-08T08:28:43;99559.28;;;18.03;48.32
63096;BME280;49184;55.596;37.770;2023-09-08T08:31:16;99545.78;;;18.34;47.32
63096;BME280;49184;55.596;37.770;2023-09-08T08:33:45;99526.53;;;18.21;44.25
63096;BME280;49184;55.596;37.770;2023-09-08T08:36:37;99551.63;;;17.97;44.89
63096;BME280;49184;55.596;37.770;2023-09-08T08:39:04;99542.09;;;17.50;46.02
63096;BME280;49184;55.596;37.770;2023-09-08T08:41:31;99548.38;;;17.35;48.06
63096;BME280;49184;55.596;37.770;2023-09-08T08:43:58;99548.06;;;17.24;47.72
63096;BME280;49184;55.596;37.770;2023-09-08T08:46:26;99540.94;;;16.95;46.72
63096;BME280;49184;55.596;37.770;2023-09-08T08:48:58;99507.81;;;17.23;50.12
63096;BME280;49184;55.596;37.770;2023-09-08T08:51:48;99539.75;;;17.96;48.96
63096;BME280;49184;55.596;37.770;2023-09-08T08:54:28;99544.19;;;18.17;47.49
63096;BME280;49184;55.596;37.770;2023-09-08T08:57:03;99490.22;;;18.07;46.74
63096;BME280;49184;55.596;37.770;2023-09-08T09:00:33;99535.91;;;18.17;46.70
63096;BME280;49184;55.596;37.770;2023-09-08T09:03:38;99475.09;;;18.36;46.38
63096;BME280;49184;55.596;37.770;2023-09-08T09:06:50;99477.56;;;18.06;44.21
63096;BME280;49184;55.596;37.770;2023-09-08T09:12:08;99497.41;;;18.98;43.77
63096;BME280;49184;55.596;37.770;2023-09-08T09:14:34;99457.78;;;18.59;42.45
63096;BME280;49184;55.596;37.770;2023-09-08T09:17:02;99460.78;;;18.34;44.50
63096;BME280;49184;55.596;37.770;2023-09-08T09:19:32;99488.38;;;18.30;43.60
63096;BME280;49184;55.596;37.770;2023-09-08T09:22:01;99488.66;;;18.61;43.88
63096;BME280;49184;55.596;37.770;2023-09-08T09:24:37;99496.06;;;18.72;45.04
63096;BME280;49184;55.596;37.770;2023-09-08T09:27:33;99476.69;;;18.72;43.68
63096;BME280;49184;55.596;37.770;2023-09-08T09:30:52;99470.75;;;19.13;43.96
63096;BME280;49184;55.596;37.770;2023-09-08T09:33:21;99449.28;;;18.87;43.78
63096;BME280;49184;55.596;37.770;2023-09-08T09:35:52;99476.56;;;18.85;44.51
63096;BME280;49184;55.596;37.770;2023-09-08T09:38:20;99486.88;;;18.33;44.42
63096;BME280;49184;55.596;37.770;2023-09-08T09:40:47;99473.19;;;18.05;46.92
63096;BME280;49184;55.596;37.770;2023-09-08T09:43:21;99485.16;;;17.77;46.16
63096;BME280;49184;55.596;37.770;2023-09-08T09:45:48;99434.81;;;17.40;47.32
63096;BME280;49184;55.596;37.770;2023-09-08T09:48:15;99450.25;;;17.41;47.52
63096;BME280;49184;55.596;37.770;2023-09-08T09:51:26;99484.19;;;17.26;48.05
63096;BME280;49184;55.596;37.770;2023-09-08T09:53:54;99481.94;;;17.16;49.71
63096;BME280;49184;55.596;37.770;2023-09-08T09:56:22;99451.28;;;16.77;49.86
63096;BME280;49184;55.596;37.770;2023-09-08T09:59:04;99469.47;;;16.65;51.08
63096;BME280;49184;55.596;37.770;2023-09-08T10:01:31;99434.72;;;16.64;51.49
63096;BME280;49184;55.596;37.770;2023-09-08T10:03:59;99459.75;;;17.28;53.78
63096;BME280;49184;55.596;37.770;2023-09-08T10:06:42;99489.25;;;17.83;50.36
63096;BME280;49184;55.596;37.770;2023-09-08T10:09:20;99454.53;;;17.38;50.32
63096;BME280;49184;55.596;37.770;2023-09-08T10:15:14;99427.31;;;16.81;51.26
63096;BME280;49184;55.596;37.770;2023-09-08T10:17:59;99413.16;;;16.42;53.61
63096;BME280;49184;55.596;37.770;2023-09-08T10:20:30;99471.56;;;16.97;55.63
63096;BME280;49184;55.596;37.770;2023-09-08T10:23:25;99488.63;;;16.86;53.64
63096;BME280;49184;55.596;37.770;2023-09-08T10:25:59;99478.47;;;16.90;53.46
63096;BME280;49184;55.596;37.770;2023-09-08T10:28:59;99456.31;;;16.34;53.07
63096;BME280;49184;55.596;37.770;2023-09-08T10:31:27;99457.66;;;16.40;56.16
63096;BME280;49184;55.596;37.770;2023-09-08T10:34:03;99490.22;;;16.35;53.88
63096;BME280;49184;55.596;37.770;2023-09-08T10:36:29;99508.03;;;16.25;54.05
63096;BME280;49184;55.596;37.770;2023-09-08T10:52:07;99501.03;;;15.79;60.78
63096;BME280;49184;55.596;37.770;2023-09-08T10:55:24;99514.25;;;15.73;57.54
63096;BME280;49184;55.596;37.770;2023-09-08T10:58:33;99469.41;;;15.64;57.65
63096;BME280;49184;55.596;37.770;2023-09-08T11:01:07;99486.91;;;15.80;57.12
63096;BME280;49184;55.596;37.770;2023-09-08T11:09:45;99472.97;;;16.38;55.67
63096;BME280;49184;55.596;37.770;2023-09-08T11:12:11;99475.28;;;16.36;57.06
63096;BME280;49184;55.596;37.770;2023-09-08T11:15:07;99498.31;;;16.68;55.52
63096;BME280;49184;55.596;37.770;2023-09-08T11:18:51;99438.22;;;15.84;57.15
63096;BME280;49184;55.596;37.770;2023-09-08T11:24:43;99503.97;;;15.61;61.40
63096;BME280;49184;55.596;37.770;2023-09-08T11:27:38;99491.13;;;14.87;63.46
63096;BME280;49184;55.596;37.770;2023-09-08T11:30:09;99491.78;;;14.63;64.12
63096;BME280;49184;55.596;37.770;2023-09-08T11:32:41;99521.25;;;14.62;64.38
63096;BME280;49184;55.596;37.770;2023-09-08T11:35:10;99519.50;;;14.28;63.48
63096;BME280;49184;55.596;37.770;2023-09-08T11:37:38;99535.13;;;14.06;64.46
63096;BME280;49184;55.596;37.770;2023-09-08T11:40:10;99538.09;;;13.93;65.07
63096;BME280;49184;55.596;37.770;2023-09-08T11:45:33;99537.81;;;13.85;67.13
63096;BME280;49184;55.596;37.770;2023-09-08T11:48:03;99495.63;;;13.43;66.53
63096;BME280;49184;55.596;37.770;2023-09-08T11:50:31;99477.06;;;13.23;67.16
63096;BME280;49184;55.596;37.770;2023-09-08T11:53:01;99533.22;;;13.60;68.18
63096;BME280;49184;55.596;37.770;2023-09-08T11:55:40;99510.81;;;13.40;68.88
63096;BME280;49184;55.596;37.770;2023-09-08T11:58:07;99458.03;;;13.35;68.30
63096;BME280;49184;55.596;37.770;2023-09-08T12:00:43;99491.34;;;13.63;66.78
63096;BME280;49184;55.596;37.770;2023-09-08T12:03:15;99485.56;;;13.56;67.55
63096;BME280;49184;55.596;37.770;2023-09-08T12:05:45;99511.06;;;13.65;67.84
63096;BME280;49184;55.596;37.770;2023-09-08T12:09:21;99497.88;;;13.88;66.78
63096;BME280;49184;55.596;37.770;2023-09-08T12:12:15;99519.53;;;14.49;66.02
63096;BME280;49184;55.596;37.770;2023-09-08T12:14:46;99531.63;;;14.56;63.63
63096;BME280;49184;55.596;37.770;2023-09-08T12:17:49;99520.59;;;14.65;62.88
63096;BME280;49184;55.596;37.770;2023-09-08T12:20:16;99525.69;;;14.75;62.19
63096;BME280;49184;55.596;37.770;2023-09-08T12:22:56;99519.84;;;14.98;60.91
63096;BME280;49184;55.596;37.770;2023-09-08T12:25:24;99525.97;;;15.16;60.65
63096;BME280;49184;55.596;37.770;2023-09-08T12:27:51;99526.78;;;15.16;58.34
63096;BME280;49184;55.596;37.770;2023-09-08T12:30:25;99502.66;;;15.01;56.06
63096;BME280;49184;55.596;37.770;2023-09-08T12:33:01;99476.41;;;14.83;57.12
63096;BME280;49184;55.596;37.770;2023-09-08T12:35:28;99501.06;;;15.12;56.63
63096;BME280;49184;55.596;37.770;2023-09-08T12:38:07;99524.56;;;15.31;55.86
63096;BME280;49184;55.596;37.770;2023-09-08T12:40:44;99521.69;;;15.39;55.33
63096;BME280;49184;55.596;37.770;2023-09-08T12:43:13;99557.25;;;15.65;55.12
63096;BME280;49184;55.596;37.770;2023-09-08T12:46:08;99517.44;;;15.75;54.71
63096;BME280;49184;55.596;37.770;2023-09-08T12:48:37;99521.72;;;15.85;53.50
63096;BME280;49184;55.596;37.770;2023-09-08T12:51:05;99504.81;;;15.74;53.00
63096;BME280;49184;55.596;37.770;2023-09-08T12:53:34;99532.41;;;15.86;53.77
63096;BME280;49184;55.596;37.770;2023-09-08T12:56:01;99558.78;;;15.75;52.38
63096;BME280;49184;55.596;37.770;2023-09-08T12:58:36;99516.81;;;15.57;52.41
63096;BME280;49184;55.596;37.770;2023-09-08T13:01:03;99514.38;;;15.56;53.59
63096;BME280;49184;55.596;37.770;2023-09-08T13:03:33;99524.41;;;15.60;52.00
63096;BME280;49184;55.596;37.770;2023-09-08T13:06:00;99522.78;;;15.59;51.64
63096;BME280;49184;55.596;37.770;2023-09-08T13:08:29;99495.53;;;15.45;51.58
63096;BME280;49184;55.596;37.770;2023-09-08T13:10:56;99530.03;;;15.64;51.96
63096;BME280;49184;55.596;37.770;2023-09-08T13:14:02;99544.63;;;15.64;51.73
63096;BME280;49184;55.596;37.770;2023-09-08T13:16:37;99509.56;;;15.52;52.57
63096;BME280;49184;55.596;37.770;2023-09-08T13:19:03;99515.44;;;15.51;51.94
63096;BME280;49184;55.596;37.770;2023-09-08T13:21:35;99552.97;;;15.56;51.98
63096;BME280;49184;55.596;37.770;2023-09-08T13:24:08;99474.19;;;14.97;51.95
63096;BME280;49184;55.596;37.770;2023-09-08T13:26:53;99516.53;;;15.38;53.28
63096;BME280;49184;55.596;37.770;2023-09-08T13:29:20;99563.06;;;15.51;51.85
63096;BME280;49184;55.596;37.770;2023-09-08T13:31:56;99517.81;;;15.07;50.73
63096;BME280;49184;55.596;37.770;2023-09-08T13:34:28;99556.25;;;15.37;50.97
63096;BME280;49184;55.596;37.770;2023-09-08T13:36:54;99572.34;;;15.47;50.68
63096;BME280;49184;55.596;37.770;2023-09-08T13:39:20;99537.34;;;15.14;51.69
63096;BME280;49184;55.596;37.770;2023-09-08T13:41:50;99568.06;;;15.37;52.00
63096;BME280;49184;55.596;37.770;2023-09-08T13:44:30;99565.09;;;15.42;50.16
63096;BME280;49184;55.596;37.770;2023-09-08T13:47:10;99554.59;;;15.23;50.00
63096;BME280;49184;55.596;37.770;2023-09-08T13:49:36;99559.16;;;15.19;50.07
63096;BME280;49184;55.596;37.770;2023-09-08T13:52:03;99554.53;;;15.11;50.09
63096;BME280;49184;55.596;37.770;2023-09-08T13:54:49;99544.44;;;15.15;49.43
63096;BME280;49184;55.596;37.770;2023-09-08T13:57:18;99562.50;;;15.25;50.09
63096;BME280;49184;55.596;37.770;2023-09-08T14:00:12;99587.56;;;15.32;49.98
63096;BME280;49184;55.596;37.770;2023-09-08T14:02:51;99545.22;;;15.03;50.42
63096;BME280;49184;55.596;37.770;2023-09-08T14:05:37;99568.44;;;15.15;50.26
63096;BME280;49184;55.596;37.770;2023-09-08T14:08:40;99589.44;;;15.19;51.28
63096;BME280;49184;55.596;37.770;2023-09-08T14:11:09;99589.78;;;15.18;50.99
63096;BME280;49184;55.596;37.770;2023-09-08T14:14:37;99565.97;;;15.01;50.55
63096;BME280;49184;55.596;37.770;2023-09-08T14:17:09;99569.16;;;15.03;50.64
63096;BME280;49184;55.596;37.770;2023-09-08T14:19:36;99598.66;;;15.23;50.98
63096;BME280;49184;55.596;37.770;2023-09-08T14:22:04;99564.00;;;15.01;50.87
63096;BME280;49184;55.596;37.770;2023-09-08T14:24:55;99594.94;;;15.19;51.50
63096;BME280;49184;55.596;37.770;2023-09-08T14:27:21;99537.50;;;14.76;51.63
63096;BME280;49184;55.596;37.770;2023-09-08T14:29:48;99522.84;;;14.63;51.61
63096;BME280;49184;55.596;37.770;2023-09-08T14:32:26;99605.44;;;15.05;50.68
63096;BME280;49184;55.596;37.770;2023-09-08T14:34:54;99573.75;;;14.78;50.65
63096;BME280;49184;55.596;37.770;2023-09-08T14:37:22;99583.06;;;14.86;51.36
63096;BME280;49184;55.596;37.770;2023-09-08T14:39:48;99576.94;;;14.80;51.49
63096;BME280;49184;55.596;37.770;2023-09-08T14:42:15;99608.66;;;14.86;51.41
63096;BME280;49184;55.596;37.770;2023-09-08T14:44:42;99613.03;;;14.87;51.29
63096;BME280;49184;55.596;37.770;2023-09-08T14:47:08;99580.16;;;14.61;51.24
63096;BME280;49184;55.596;37.770;2023-09-08T14:49:36;99569.03;;;14.49;51.53
63096;BME280;49184;55.596;37.770;2023-09-08T14:52:05;99600.09;;;14.58;51.96
63096;BME280;49184;55.596;37.770;2023-09-08T14:54:31;99630.88;;;14.81;51.42
63096;BME280;49184;55.596;37.770;2023-09-08T14:56:57;99627.50;;;14.75;51.60
63096;BME280;49184;55.596;37.770;2023-09-08T14:59:23;99631.41;;;14.74;51.50
63096;BME280;49184;55.596;37.770;2023-09-08T15:01:49;99615.00;;;14.57;51.96
63096;BME280;49184;55.596;37.770;2023-09-08T15:04:16;99644.88;;;14.67;50.84